createdAt,value
2018-09-11T00:01:51.660Z,2.47
2018-09-11T00:04:20.870Z,2.30
2018-09-11T00:06:50.010Z,2.33
2018-09-11T00:09:19.250Z,2.30
2018-09-11T00:11:48.332Z,2.37
2018-09-11T00:14:17.511Z,2.73
2018-09-11T00:16:46.697Z,2.53
2018-09-11T00:19:15.949Z,2.37
2018-09-11T00:21:45.152Z,2.30
2018-09-11T00:24:14.325Z,2.40
2018-09-11T00:26:43.470Z,2.00
2018-09-11T00:29:12.631Z,1.90
2018-09-11T00:31:41.845Z,2.47
2018-09-11T00:34:11.203Z,3.03
2018-09-11T00:36:40.396Z,2.47
2018-09-11T00:39:09.958Z,2.37
2018-09-11T00:41:39.069Z,2.53
2018-09-11T00:44:08.283Z,2.40
2018-09-11T00:46:37.432Z,2.50
2018-09-11T00:49:06.637Z,2.47
2018-09-11T00:51:35.857Z,2.93
2018-09-11T00:54:05.027Z,2.53
2018-09-11T00:56:34.528Z,2.40
2018-09-11T00:59:03.750Z,3.20
2018-09-11T01:01:32.892Z,2.50
2018-09-11T01:04:02.058Z,3.20
2018-09-11T01:06:31.191Z,2.73
2018-09-11T01:09:00.334Z,3.10
2018-09-11T01:11:29.527Z,3.23
2018-09-11T01:13:58.685Z,3.00
2018-09-11T01:16:27.879Z,2.50
2018-09-11T01:18:57.008Z,2.90
2018-09-11T01:21:26.199Z,3.03
2018-09-11T01:23:55.438Z,2.90
2018-09-11T01:26:24.556Z,2.97
2018-09-11T01:28:53.698Z,2.30
2018-09-11T01:31:22.854Z,3.23
2018-09-11T01:33:51.964Z,2.77
2018-09-11T01:36:21.206Z,3.27
2018-09-11T01:38:50.341Z,2.63
2018-09-11T01:41:19.481Z,3.20
2018-09-11T01:43:48.637Z,2.47
2018-09-11T01:46:17.807Z,2.63
2018-09-11T01:48:47.015Z,2.90
2018-09-11T01:51:16.175Z,2.83
2018-09-11T01:53:45.367Z,2.97
2018-09-11T01:56:14.468Z,2.90
2018-09-11T01:58:43.639Z,2.07
2018-09-11T02:01:12.833Z,3.17
2018-09-11T02:03:42.086Z,3.07
2018-09-11T02:06:11.213Z,2.83
2018-09-11T02:08:40.459Z,2.80
2018-09-11T02:11:09.616Z,3.07
2018-09-11T02:13:38.779Z,2.90
2018-09-11T02:16:07.926Z,3.13
2018-09-11T02:18:37.091Z,3.33
2018-09-11T02:21:06.312Z,3.30
2018-09-11T02:23:35.507Z,3.40
2018-09-11T02:26:04.654Z,3.30
2018-09-11T02:28:33.854Z,2.87
2018-09-11T02:31:03.044Z,2.70
2018-09-11T02:33:32.225Z,2.80
2018-09-11T02:36:01.450Z,3.40
2018-09-11T02:38:30.650Z,2.67
2018-09-11T02:40:59.833Z,4.20
2018-09-11T02:43:29.001Z,3.43
2018-09-11T02:45:58.178Z,3.60
2018-09-11T02:48:27.337Z,3.57
2018-09-11T02:50:56.450Z,3.80
2018-09-11T02:53:25.572Z,3.53
2018-09-11T02:55:54.755Z,3.60
2018-09-11T02:58:23.865Z,3.67
2018-09-11T03:00:53.100Z,3.53
2018-09-11T03:03:22.252Z,4.00
2018-09-11T03:05:51.714Z,3.77
2018-09-11T03:08:20.895Z,4.50
2018-09-11T03:10:50.066Z,4.40
2018-09-11T03:13:19.216Z,4.27
2018-09-11T03:15:48.386Z,3.70
2018-09-11T03:18:17.508Z,4.57
2018-09-11T03:20:51.572Z,4.20
2018-09-11T03:23:20.945Z,4.30
2018-09-11T03:25:50.126Z,4.30
2018-09-11T03:28:19.347Z,4.70
2018-09-11T03:30:48.540Z,4.73
2018-09-11T03:33:17.687Z,4.50
2018-09-11T03:35:46.844Z,5.03
2018-09-11T03:38:16.230Z,5.00
2018-09-11T03:40:45.423Z,5.00
2018-09-11T03:43:15.058Z,6.07
2018-09-11T03:45:48.683Z,5.90
2018-09-11T03:48:21.367Z,6.10
2018-09-11T03:50:51.478Z,5.30
2018-09-11T03:53:20.689Z,5.83
2018-09-11T03:55:49.814Z,5.10
2018-09-11T03:58:19.262Z,6.00
2018-09-11T04:00:48.405Z,5.80
2018-09-11T04:03:17.509Z,6.53
2018-09-11T04:05:46.698Z,5.43
2018-09-11T04:08:15.891Z,5.70
2018-09-11T04:10:45.075Z,6.37
2018-09-11T04:13:14.226Z,6.27
2018-09-11T04:15:43.362Z,7.23
2018-09-11T04:18:12.654Z,6.63
2018-09-11T04:20:41.825Z,6.60
2018-09-11T04:23:11.236Z,6.20
2018-09-11T04:25:40.485Z,7.97
2018-09-11T04:28:09.524Z,7.43
2018-09-11T04:30:38.711Z,7.30
2018-09-11T04:33:07.844Z,7.90
2018-09-11T04:35:36.932Z,7.93
2018-09-11T04:38:06.757Z,9.23
2018-09-11T04:40:35.841Z,7.63
2018-09-11T04:43:05.032Z,9.10
2018-09-11T04:45:34.157Z,9.50
2018-09-11T04:48:03.345Z,8.40
2018-09-11T04:50:32.575Z,8.43
2018-09-11T04:53:01.770Z,8.80
2018-09-11T04:55:30.895Z,9.27
2018-09-11T04:58:00.063Z,8.67
2018-09-11T05:00:29.245Z,9.10
2018-09-11T05:02:58.435Z,10.07
2018-09-11T05:05:27.638Z,9.03
2018-09-11T05:07:56.812Z,10.20
2018-09-11T05:10:26.044Z,9.63
2018-09-11T05:12:55.214Z,9.47
2018-09-11T05:15:24.336Z,9.87
2018-09-11T05:17:53.559Z,9.63
2018-09-11T05:20:22.691Z,10.03
2018-09-11T05:22:51.831Z,10.00
2018-09-11T05:25:21.015Z,8.90
2018-09-11T05:27:50.123Z,8.83
2018-09-11T05:30:19.278Z,9.83
2018-09-11T05:32:48.452Z,10.27
2018-09-11T05:35:17.609Z,9.73
2018-09-11T05:37:46.730Z,9.60
2018-09-11T05:40:15.846Z,8.67
2018-09-11T05:42:44.998Z,9.40
2018-09-11T05:45:14.155Z,8.60
2018-09-11T05:47:43.349Z,7.90
2018-09-11T05:50:12.501Z,8.23
2018-09-11T05:52:41.667Z,7.67
2018-09-11T05:55:10.870Z,8.20
2018-09-11T05:57:40.057Z,8.33
2018-09-11T06:00:09.208Z,7.90
2018-09-11T06:02:38.369Z,7.13
2018-09-11T06:05:07.498Z,7.57
2018-09-11T06:07:36.713Z,7.30
2018-09-11T06:10:05.893Z,8.13
2018-09-11T06:12:35.040Z,6.80
2018-09-11T06:15:04.206Z,7.23
2018-09-11T06:17:33.327Z,7.03
2018-09-11T06:20:02.464Z,6.00
2018-09-11T06:22:31.647Z,7.43
2018-09-11T06:25:00.874Z,7.10
2018-09-11T06:27:30.009Z,7.20
2018-09-11T06:29:59.163Z,7.50
2018-09-11T06:32:28.350Z,6.83
2018-09-11T06:34:57.481Z,6.33
2018-09-11T06:37:26.680Z,5.90
2018-09-11T06:39:55.834Z,5.50
2018-09-11T06:42:25.044Z,5.60
2018-09-11T06:44:54.158Z,5.57
2018-09-11T06:47:23.290Z,5.70
2018-09-11T06:49:52.452Z,4.90
2018-09-11T06:52:21.567Z,5.57
2018-09-11T06:54:50.797Z,5.40
2018-09-11T06:57:19.842Z,5.60
2018-09-11T06:59:48.967Z,5.07
2018-09-11T07:02:18.119Z,5.70
2018-09-11T07:04:47.285Z,5.23
2018-09-11T07:07:16.397Z,6.43
2018-09-11T07:09:45.587Z,5.20
2018-09-11T07:12:14.695Z,6.17
2018-09-11T07:14:43.864Z,4.83
2018-09-11T07:17:13.095Z,5.30
2018-09-11T07:19:42.255Z,5.37
2018-09-11T07:22:11.377Z,5.60
2018-09-11T07:24:40.551Z,5.00
2018-09-11T07:27:09.734Z,6.10
2018-09-11T07:29:38.855Z,5.67
2018-09-11T07:32:07.972Z,6.57
2018-09-11T07:34:37.103Z,6.47
2018-09-11T07:37:07.038Z,6.43
2018-09-11T07:39:36.188Z,6.50
2018-09-11T07:42:05.321Z,5.47
2018-09-11T07:44:34.476Z,5.10
2018-09-11T07:47:03.599Z,4.30
2018-09-11T07:49:32.708Z,4.10
2018-09-11T07:52:01.872Z,5.13
2018-09-11T07:54:31.037Z,3.93
2018-09-11T07:57:00.194Z,4.60
2018-09-11T07:59:29.315Z,4.40
2018-09-11T08:01:58.444Z,3.50
2018-09-11T08:04:27.592Z,4.20
2018-09-11T08:06:56.713Z,4.10
2018-09-11T08:09:25.918Z,4.23
2018-09-11T08:11:55.037Z,4.47
2018-09-11T08:14:24.118Z,3.20
2018-09-11T08:16:53.182Z,3.30
2018-09-11T08:19:22.318Z,3.00
2018-09-11T08:21:51.481Z,3.97
2018-09-11T08:24:20.687Z,2.97
2018-09-11T08:26:49.814Z,3.07
2018-09-11T08:29:18.974Z,3.10
2018-09-11T08:31:48.121Z,3.57
2018-09-11T08:34:17.254Z,3.00
2018-09-11T08:36:46.395Z,2.80
2018-09-11T08:39:15.612Z,3.23
2018-09-11T08:41:44.758Z,3.27
2018-09-11T08:44:13.948Z,3.27
2018-09-11T08:46:43.173Z,2.97
2018-09-11T08:49:12.231Z,3.40
2018-09-11T08:51:41.410Z,3.60
2018-09-11T08:54:10.515Z,3.90
2018-09-11T08:56:39.664Z,3.50
2018-09-11T08:59:08.834Z,3.10
2018-09-11T09:01:38.051Z,2.90
2018-09-11T09:04:07.226Z,3.10
2018-09-11T09:06:36.351Z,2.40
2018-09-11T09:09:09.085Z,2.50
2018-09-11T09:11:38.517Z,2.50
2018-09-11T09:14:07.765Z,2.83
2018-09-11T09:16:36.937Z,2.33
2018-09-11T09:19:06.101Z,2.30
2018-09-11T09:21:35.328Z,2.60
2018-09-11T09:24:04.450Z,1.73
2018-09-11T09:26:33.611Z,1.77
2018-09-11T09:29:02.764Z,1.80
2018-09-11T09:31:31.841Z,1.70
2018-09-11T09:34:01.009Z,1.20
2018-09-11T09:36:30.208Z,1.37
2018-09-11T09:38:59.339Z,1.33
2018-09-11T09:41:28.511Z,1.70
2018-09-11T09:43:57.669Z,1.70
2018-09-11T09:46:26.812Z,1.80
2018-09-11T09:48:55.986Z,1.60
2018-09-11T09:51:25.140Z,1.30
2018-09-11T09:53:54.389Z,1.40
2018-09-11T09:56:23.547Z,1.73
2018-09-11T09:58:52.761Z,1.30
2018-09-11T10:01:27.161Z,1.40
2018-09-11T10:03:56.328Z,1.40
2018-09-11T10:06:25.470Z,1.33
2018-09-11T10:08:54.546Z,1.73
2018-09-11T10:11:23.669Z,1.70
2018-09-11T10:13:52.789Z,2.00
2018-09-11T10:16:22.038Z,2.07
2018-09-11T10:18:51.150Z,1.80
2018-09-11T10:21:20.336Z,1.77
2018-09-11T10:23:49.513Z,1.57
2018-09-11T10:26:18.653Z,1.83
2018-09-11T10:28:47.794Z,1.50
2018-09-11T10:31:16.929Z,2.00
2018-09-11T10:33:46.218Z,1.80
2018-09-11T10:36:15.316Z,1.73
2018-09-11T10:38:44.431Z,2.13
2018-09-11T10:41:13.584Z,1.90
2018-09-11T10:43:42.717Z,1.80
2018-09-11T10:46:11.816Z,1.83
2018-09-11T10:48:41.022Z,2.00
2018-09-11T10:51:10.078Z,1.93
2018-09-11T10:53:39.243Z,2.43
2018-09-11T10:56:08.436Z,2.03
2018-09-11T10:58:37.550Z,1.83
2018-09-11T11:01:06.943Z,1.60
2018-09-11T11:03:36.135Z,2.00
2018-09-11T11:06:05.324Z,1.87
2018-09-11T11:08:34.473Z,2.27
2018-09-11T11:11:03.600Z,1.67
2018-09-11T11:13:32.733Z,2.10
2018-09-11T11:16:01.856Z,1.97
2018-09-11T11:18:30.976Z,1.60
2018-09-11T11:21:00.149Z,2.23
2018-09-11T11:23:29.262Z,2.10
2018-09-11T11:25:58.756Z,1.93
2018-09-11T11:28:27.952Z,2.73
2018-09-11T11:30:57.098Z,2.77
2018-09-11T11:33:26.217Z,2.50
2018-09-11T11:35:55.374Z,2.30
2018-09-11T11:38:24.572Z,2.33
2018-09-11T11:40:53.725Z,2.53
2018-09-11T11:43:22.878Z,2.80
2018-09-11T11:45:52.797Z,1.83
2018-09-11T11:48:22.096Z,2.13
2018-09-11T11:50:51.059Z,2.30
2018-09-11T11:53:20.218Z,2.37
2018-09-11T11:55:49.371Z,2.73
2018-09-11T11:58:18.577Z,2.60
2018-09-11T12:00:47.799Z,2.57
2018-09-11T12:03:17.021Z,2.27
2018-09-11T12:05:46.157Z,2.20
2018-09-11T12:08:15.308Z,2.10
2018-09-11T12:10:44.477Z,2.70
2018-09-11T12:13:13.673Z,3.03
2018-09-11T12:15:42.790Z,2.27
2018-09-11T12:18:11.956Z,2.33
2018-09-11T12:20:41.119Z,2.43
2018-09-11T12:23:10.268Z,2.87
2018-09-11T12:25:39.485Z,2.40
2018-09-11T12:28:08.559Z,2.33
2018-09-11T12:30:37.837Z,2.40
2018-09-11T12:33:07.234Z,2.57
2018-09-11T12:35:36.804Z,2.40
2018-09-11T12:38:05.953Z,2.50
2018-09-11T12:40:35.118Z,2.73
2018-09-11T12:43:04.317Z,2.53
2018-09-11T12:45:33.450Z,2.73
2018-09-11T12:48:02.938Z,2.40
2018-09-11T12:50:31.772Z,2.63
2018-09-11T12:53:00.918Z,2.53
2018-09-11T12:55:30.107Z,2.90
2018-09-11T12:57:59.266Z,2.70
2018-09-11T13:00:28.380Z,2.50
2018-09-11T13:02:57.528Z,2.90
2018-09-11T13:05:26.748Z,2.90
2018-09-11T13:07:55.876Z,2.97
2018-09-11T13:10:25.017Z,2.50
2018-09-11T13:12:54.295Z,2.70
2018-09-11T13:15:26.403Z,2.60
2018-09-11T13:17:55.788Z,2.60
2018-09-11T13:20:24.859Z,3.03
2018-09-11T13:22:54.054Z,3.00
2018-09-11T13:25:23.267Z,2.57
2018-09-11T13:27:52.361Z,3.00
2018-09-11T13:30:21.521Z,2.23
2018-09-11T13:32:50.659Z,2.90
2018-09-11T13:35:19.770Z,2.73
2018-09-11T13:37:48.936Z,2.90
2018-09-11T13:40:18.097Z,2.97
2018-09-11T13:42:47.316Z,3.07
2018-09-11T13:45:16.493Z,2.40
2018-09-11T13:47:45.713Z,2.33
2018-09-11T13:50:14.826Z,2.47
2018-09-11T13:52:43.996Z,2.93
2018-09-11T13:55:13.182Z,2.97
2018-09-11T13:57:42.393Z,2.40
2018-09-11T14:00:11.614Z,1.93
2018-09-11T14:02:41.020Z,2.47
2018-09-11T14:05:10.134Z,2.40
2018-09-11T14:07:39.336Z,1.80
2018-09-11T14:10:08.493Z,2.57
2018-09-11T14:12:37.721Z,2.80
2018-09-11T14:15:07.458Z,2.40
2018-09-11T14:17:36.596Z,2.30
2018-09-11T14:20:06.632Z,2.63
2018-09-11T14:22:35.844Z,2.70
2018-09-11T14:25:05.045Z,2.43
2018-09-11T14:27:34.211Z,2.90
2018-09-11T14:30:03.349Z,3.90
2018-09-11T14:32:32.506Z,3.17
2018-09-11T14:35:01.746Z,2.30
2018-09-11T14:37:30.864Z,3.43
2018-09-11T14:40:00.013Z,2.80
2018-09-11T14:42:29.143Z,2.00
2018-09-11T14:44:58.235Z,2.43
2018-09-11T14:47:31.548Z,2.80
2018-09-11T14:50:00.727Z,2.73
2018-09-11T14:52:29.896Z,2.13
2018-09-11T14:54:59.021Z,3.00
2018-09-11T14:57:28.211Z,2.47
2018-09-11T14:59:57.458Z,3.00
2018-09-11T15:02:26.566Z,2.10
2018-09-11T15:04:56.237Z,2.03
2018-09-11T15:07:25.688Z,1.80
2018-09-11T15:09:54.979Z,2.27
2018-09-11T15:12:24.155Z,1.73
2018-09-11T15:14:53.389Z,1.83
2018-09-11T15:17:22.496Z,2.07
2018-09-11T15:19:51.704Z,2.30
2018-09-11T15:22:21.081Z,2.10
2018-09-11T15:24:50.159Z,1.40
2018-09-11T15:27:19.330Z,1.80
2018-09-11T15:29:48.505Z,1.60
2018-09-11T15:32:17.708Z,1.83
2018-09-11T15:34:46.875Z,1.90
2018-09-11T15:37:16.059Z,1.80
2018-09-11T15:39:45.216Z,1.50
2018-09-11T15:42:14.385Z,1.77
2018-09-11T15:44:43.569Z,1.93
2018-09-11T15:47:12.794Z,1.60
2018-09-11T15:49:41.929Z,1.53
2018-09-11T15:52:11.090Z,1.80
2018-09-11T15:54:40.290Z,1.57
2018-09-11T15:57:09.453Z,1.73
2018-09-11T15:59:38.615Z,1.53
2018-09-11T16:02:07.836Z,0.97
2018-09-11T16:04:36.976Z,1.97
2018-09-11T16:07:06.185Z,1.10
2018-09-11T16:09:35.417Z,1.70
2018-09-11T16:12:04.572Z,1.50
2018-09-11T16:14:33.953Z,1.30
2018-09-11T16:17:03.097Z,1.07
2018-09-11T16:19:32.227Z,0.90
2018-09-11T16:22:01.381Z,1.20
2018-09-11T16:24:30.611Z,0.83
2018-09-11T16:26:59.826Z,1.63
2018-09-11T16:29:28.965Z,1.10
2018-09-11T16:31:58.186Z,1.40
2018-09-11T16:34:27.400Z,1.27
2018-09-11T16:36:56.586Z,1.23
2018-09-11T16:39:25.789Z,1.03
2018-09-11T16:41:55.017Z,1.13
2018-09-11T16:44:24.174Z,1.20
2018-09-11T16:46:53.355Z,1.27
2018-09-11T16:49:22.546Z,1.40
2018-09-11T16:51:51.926Z,1.90
2018-09-11T16:54:21.095Z,1.47
2018-09-11T16:56:50.276Z,2.20
2018-09-11T16:59:19.406Z,1.40
2018-09-11T17:01:48.554Z,1.30
2018-09-11T17:04:17.690Z,1.10
2018-09-11T17:06:46.880Z,1.63
2018-09-11T17:09:16.028Z,1.20
2018-09-11T17:11:45.156Z,1.80
2018-09-11T17:14:14.262Z,1.40
2018-09-11T17:16:43.439Z,1.67
2018-09-11T17:19:12.554Z,1.37
2018-09-11T17:21:41.696Z,1.40
2018-09-11T17:24:10.813Z,1.30
2018-09-11T17:26:40.004Z,1.27
2018-09-11T17:29:09.142Z,1.30
2018-09-11T17:31:38.239Z,1.30
2018-09-11T17:34:07.652Z,1.50
2018-09-11T17:36:36.807Z,1.70
2018-09-11T17:39:09.785Z,1.80
2018-09-11T17:41:39.455Z,1.77
2018-09-11T17:44:08.627Z,1.87
2018-09-11T17:46:37.966Z,2.00
2018-09-11T17:49:07.521Z,1.53
2018-09-11T17:51:36.697Z,1.57
2018-09-11T17:54:05.889Z,1.70
2018-09-11T17:56:35.010Z,1.40
2018-09-11T17:59:04.111Z,1.17
2018-09-11T18:01:33.303Z,1.30
2018-09-11T18:04:02.409Z,1.60
2018-09-11T18:06:31.597Z,1.30
2018-09-11T18:09:00.744Z,0.87
2018-09-11T18:11:29.904Z,1.57
2018-09-11T18:13:59.088Z,1.30
2018-09-11T18:16:28.246Z,1.33
2018-09-11T18:18:57.390Z,1.27
2018-09-11T18:21:26.680Z,1.50
2018-09-11T18:23:55.873Z,1.83
2018-09-11T18:26:25.010Z,1.33
2018-09-11T18:28:54.193Z,1.50
2018-09-11T18:31:23.330Z,1.20
2018-09-11T18:33:52.649Z,1.70
2018-09-11T18:36:21.888Z,1.50
2018-09-11T18:38:51.046Z,1.60
2018-09-11T18:41:20.208Z,4.67
2018-09-11T18:43:49.418Z,3.47
2018-09-11T18:46:18.568Z,5.60
2018-09-11T18:48:47.671Z,5.07
2018-09-11T18:51:16.921Z,4.23
2018-09-11T18:53:46.033Z,2.30
2018-09-11T18:56:15.242Z,4.00
2018-09-11T18:58:44.647Z,4.87
2018-09-11T19:01:13.825Z,3.40
2018-09-11T19:03:42.935Z,2.50
2018-09-11T19:06:12.043Z,2.67
2018-09-11T19:08:41.239Z,2.07
2018-09-11T19:11:10.476Z,1.87
2018-09-11T19:13:39.658Z,1.90
2018-09-11T19:16:09.019Z,1.70
2018-09-11T19:18:38.106Z,1.40
2018-09-11T19:21:07.229Z,1.63
2018-09-11T19:23:36.368Z,1.70
2018-09-11T19:26:05.546Z,1.40
2018-09-11T19:28:34.716Z,1.43
2018-09-11T19:31:03.907Z,1.80
2018-09-11T19:33:36.103Z,1.50
2018-09-11T19:36:05.350Z,1.67
2018-09-11T19:38:34.464Z,1.40
2018-09-11T19:41:03.620Z,1.10
2018-09-11T19:43:32.756Z,1.63
2018-09-11T19:46:01.896Z,1.50
2018-09-11T19:48:30.988Z,1.50
2018-09-11T19:51:00.161Z,1.70
2018-09-11T19:53:29.334Z,1.43
2018-09-11T19:55:58.470Z,1.30
2018-09-11T19:58:27.816Z,1.80
2018-09-11T20:00:56.962Z,1.90
2018-09-11T20:03:26.139Z,1.67
2018-09-11T20:05:55.306Z,1.90
2018-09-11T20:08:24.420Z,1.90
2018-09-11T20:10:53.600Z,1.70
2018-09-11T20:13:22.735Z,1.43
2018-09-11T20:15:52.098Z,1.90
2018-09-11T20:18:21.259Z,1.43
2018-09-11T20:20:50.445Z,1.40
2018-09-11T20:23:19.758Z,1.93
2018-09-11T20:25:48.930Z,1.77
2018-09-11T20:28:18.081Z,1.87
2018-09-11T20:30:47.361Z,1.80
2018-09-11T20:33:16.539Z,1.60
2018-09-11T20:35:45.712Z,2.10
2018-09-11T20:38:14.913Z,1.87
2018-09-11T20:40:44.064Z,1.70
2018-09-11T20:43:13.620Z,2.07
2018-09-11T20:45:42.825Z,2.00
2018-09-11T20:48:12.023Z,1.70
2018-09-11T20:50:41.172Z,2.03
2018-09-11T20:53:10.328Z,1.70
2018-09-11T20:55:39.500Z,1.80
2018-09-11T20:58:08.753Z,1.63
2018-09-11T21:00:37.938Z,1.83
2018-09-11T21:03:07.114Z,2.07
2018-09-11T21:05:36.325Z,1.63
2018-09-11T21:08:05.499Z,1.80
2018-09-11T21:10:34.628Z,1.80
2018-09-11T21:13:03.870Z,1.63
2018-09-11T21:15:33.019Z,1.70
2018-09-11T21:18:02.169Z,2.43
2018-09-11T21:20:31.386Z,1.87
2018-09-11T21:23:00.627Z,2.10
2018-09-11T21:25:29.902Z,1.77
2018-09-11T21:27:59.373Z,2.10
2018-09-11T21:30:28.705Z,1.93
2018-09-11T21:32:57.975Z,1.60
2018-09-11T21:35:27.237Z,2.23
2018-09-11T21:37:56.529Z,2.00
2018-09-11T21:40:25.789Z,1.90
2018-09-11T21:42:55.038Z,1.87
2018-09-11T21:45:24.342Z,2.00
2018-09-11T21:47:53.605Z,2.07
2018-09-11T21:50:22.898Z,1.90
2018-09-11T21:52:52.186Z,2.00
2018-09-11T21:55:21.436Z,2.20
2018-09-11T21:57:50.670Z,1.90
2018-09-11T22:00:19.978Z,2.00
2018-09-11T22:02:49.261Z,2.53
2018-09-11T22:05:18.503Z,2.03
2018-09-11T22:07:47.773Z,1.93
2018-09-11T22:10:17.078Z,1.80
2018-09-11T22:12:46.352Z,2.07
2018-09-11T22:15:15.672Z,2.00
2018-09-11T22:17:44.990Z,2.27
2018-09-11T22:20:14.229Z,2.13
2018-09-11T22:22:43.420Z,1.53
2018-09-11T22:25:12.664Z,2.53
2018-09-11T22:27:41.957Z,2.53
2018-09-11T22:30:11.200Z,2.67
2018-09-11T22:32:40.480Z,2.07
2018-09-11T22:35:09.787Z,2.40
2018-09-11T22:37:39.068Z,2.67
2018-09-11T22:40:09.103Z,2.03
2018-09-11T22:42:38.890Z,1.90
2018-09-11T22:45:08.219Z,1.97
2018-09-11T22:47:37.566Z,2.17
2018-09-11T22:50:06.918Z,2.60
2018-09-11T22:52:36.561Z,2.37
2018-09-11T22:55:05.929Z,2.77
2018-09-11T22:57:38.741Z,2.20
2018-09-11T23:00:08.600Z,2.33
2018-09-11T23:02:37.960Z,2.23
2018-09-11T23:05:07.533Z,2.70
2018-09-11T23:07:45.827Z,2.60
2018-09-11T23:10:15.549Z,2.00
2018-09-11T23:12:44.900Z,2.20
2018-09-11T23:15:14.294Z,2.60
2018-09-11T23:17:43.630Z,2.73
2018-09-11T23:20:13.381Z,2.47
2018-09-11T23:22:42.746Z,2.73
2018-09-11T23:25:12.089Z,2.30
2018-09-11T23:27:42.084Z,2.97
2018-09-11T23:30:11.733Z,2.60
2018-09-11T23:32:41.222Z,3.13
2018-09-11T23:35:10.570Z,2.53
2018-09-11T23:37:40.099Z,2.70
2018-09-11T23:40:09.810Z,2.90
2018-09-11T23:42:39.164Z,2.70
2018-09-11T23:45:08.458Z,2.90
2018-09-11T23:47:38.226Z,2.50
2018-09-11T23:50:08.685Z,3.27
2018-09-11T23:52:38.415Z,2.67
2018-09-11T23:55:07.755Z,2.67
2018-09-11T23:57:37.062Z,2.83
